sensor_id;sensor_type;location;lat;lon;timestamp;P1;durP1;ratioP1;P2;durP2;ratioP2
48596;SDS011;34382;43.160;24.148;2022-09-27T05:06:05;14.75;;;9.65;;
48596;SDS011;34382;43.160;24.148;2022-09-27T05:07:37;14.07;;;9.52;;
48596;SDS011;34382;43.160;24.148;2022-09-27T05:09:10;16.58;;;12.02;;
48596;SDS011;34382;43.160;24.148;2022-09-27T05:10:42;17.55;;;12.32;;
48596;SDS011;34382;43.160;24.148;2022-09-27T05:12:14;16.55;;;12.70;;
48596;SDS011;34382;43.160;24.148;2022-09-27T05:13:46;16.48;;;11.60;;
48596;SDS011;34382;43.160;24.148;2022-09-27T05:15:18;16.88;;;12.80;;
48596;SDS011;34382;43.160;24.148;2022-09-27T05:16:51;16.23;;;11.70;;
48596;SDS011;34382;43.160;24.148;2022-09-27T05:18:24;16.33;;;11.70;;
48596;SDS011;34382;43.160;24.148;2022-09-27T05:19:56;13.75;;;10.57;;
48596;SDS011;34382;43.160;24.148;2022-09-27T05:21:28;16.02;;;11.65;;
48596;SDS011;34382;43.160;24.148;2022-09-27T05:23:02;13.45;;;10.15;;
48596;SDS011;34382;43.160;24.148;2022-09-27T05:24:35;15.25;;;10.73;;
48596;SDS011;34382;43.160;24.148;2022-09-27T05:26:08;16.67;;;11.23;;
48596;SDS011;34382;43.160;24.148;2022-09-27T05:27:43;16.05;;;10.40;;
48596;SDS011;34382;43.160;24.148;2022-09-27T05:29:15;14.00;;;10.43;;
48596;SDS011;34382;43.160;24.148;2022-09-27T05:30:48;15.07;;;10.13;;
48596;SDS011;34382;43.160;24.148;2022-09-27T05:32:21;16.35;;;11.38;;
48596;SDS011;34382;43.160;24.148;2022-09-27T05:33:56;19.02;;;11.85;;
48596;SDS011;34382;43.160;24.148;2022-09-27T05:35:29;15.65;;;11.13;;
48596;SDS011;34382;43.160;24.148;2022-09-27T05:38:34;17.88;;;12.05;;
48596;SDS011;34382;43.160;24.148;2022-09-27T05:40:07;16.40;;;11.25;;
48596;SDS011;34382;43.160;24.148;2022-09-27T05:41:59;15.95;;;10.95;;
48596;SDS011;34382;43.160;24.148;2022-09-27T05:45:05;15.57;;;10.32;;
48596;SDS011;34382;43.160;24.148;2022-09-27T05:46:38;16.33;;;10.48;;
48596;SDS011;34382;43.160;24.148;2022-09-27T05:48:10;15.90;;;10.65;;
48596;SDS011;34382;43.160;24.148;2022-09-27T05:49:47;15.48;;;10.82;;
48596;SDS011;34382;43.160;24.148;2022-09-27T05:51:19;15.07;;;10.60;;
48596;SDS011;34382;43.160;24.148;2022-09-27T05:52:52;16.63;;;10.35;;
48596;SDS011;34382;43.160;24.148;2022-09-27T05:54:24;17.33;;;11.07;;
48596;SDS011;34382;43.160;24.148;2022-09-27T05:55:59;16.58;;;11.82;;
48596;SDS011;34382;43.160;24.148;2022-09-27T05:57:32;13.95;;;10.75;;
48596;SDS011;34382;43.160;24.148;2022-09-27T05:59:05;16.17;;;11.80;;
48596;SDS011;34382;43.160;24.148;2022-09-27T06:00:37;15.50;;;11.23;;
48596;SDS011;34382;43.160;24.148;2022-09-27T06:02:10;15.57;;;11.05;;
48596;SDS011;34382;43.160;24.148;2022-09-27T06:03:42;15.05;;;10.40;;
48596;SDS011;34382;43.160;24.148;2022-09-27T06:05:16;14.85;;;10.25;;
48596;SDS011;34382;43.160;24.148;2022-09-27T06:06:51;16.73;;;11.60;;
48596;SDS011;34382;43.160;24.148;2022-09-27T06:08:23;16.15;;;11.48;;
48596;SDS011;34382;43.160;24.148;2022-09-27T06:09:55;16.35;;;11.15;;
48596;SDS011;34382;43.160;24.148;2022-09-27T06:11:27;15.40;;;10.57;;
48596;SDS011;34382;43.160;24.148;2022-09-27T06:13:00;16.63;;;10.93;;
48596;SDS011;34382;43.160;24.148;2022-09-27T06:16:06;16.38;;;11.18;;
48596;SDS011;34382;43.160;24.148;2022-09-27T06:17:39;17.10;;;11.63;;
48596;SDS011;34382;43.160;24.148;2022-09-27T06:19:11;15.77;;;11.15;;
48596;SDS011;34382;43.160;24.148;2022-09-27T06:20:44;16.38;;;11.13;;
48596;SDS011;34382;43.160;24.148;2022-09-27T06:22:16;20.40;;;12.20;;
48596;SDS011;34382;43.160;24.148;2022-09-27T06:23:48;16.50;;;11.43;;
48596;SDS011;34382;43.160;24.148;2022-09-27T06:25:24;16.17;;;11.15;;
48596;SDS011;34382;43.160;24.148;2022-09-27T06:26:57;17.15;;;11.75;;
48596;SDS011;34382;43.160;24.148;2022-09-27T06:28:29;15.38;;;11.38;;
48596;SDS011;34382;43.160;24.148;2022-09-27T06:30:02;15.25;;;11.60;;
48596;SDS011;34382;43.160;24.148;2022-09-27T06:31:35;16.70;;;11.43;;
48596;SDS011;34382;43.160;24.148;2022-09-27T06:33:08;17.48;;;11.77;;
48596;SDS011;34382;43.160;24.148;2022-09-27T06:34:44;17.35;;;11.88;;
48596;SDS011;34382;43.160;24.148;2022-09-27T06:36:16;19.15;;;12.90;;
48596;SDS011;34382;43.160;24.148;2022-09-27T06:37:48;14.43;;;10.15;;
48596;SDS011;34382;43.160;24.148;2022-09-27T06:39:20;20.42;;;11.02;;
48596;SDS011;34382;43.160;24.148;2022-09-27T06:40:52;16.05;;;10.88;;
48596;SDS011;34382;43.160;24.148;2022-09-27T06:42:25;14.68;;;10.13;;
48596;SDS011;34382;43.160;24.148;2022-09-27T06:43:58;13.73;;;9.65;;
48596;SDS011;34382;43.160;24.148;2022-09-27T06:45:30;15.10;;;9.70;;
48596;SDS011;34382;43.160;24.148;2022-09-27T06:47:03;13.32;;;9.40;;
48596;SDS011;34382;43.160;24.148;2022-09-27T06:48:35;14.20;;;9.60;;
48596;SDS011;34382;43.160;24.148;2022-09-27T06:50:09;13.70;;;9.75;;
48596;SDS011;34382;43.160;24.148;2022-09-27T06:51:42;14.52;;;9.25;;
48596;SDS011;34382;43.160;24.148;2022-09-27T06:53:15;14.30;;;9.23;;
48596;SDS011;34382;43.160;24.148;2022-09-27T06:54:47;15.80;;;9.38;;
48596;SDS011;34382;43.160;24.148;2022-09-27T06:56:19;14.40;;;9.43;;
48596;SDS011;34382;43.160;24.148;2022-09-27T06:57:55;15.93;;;10.90;;
48596;SDS011;34382;43.160;24.148;2022-09-27T06:59:45;17.08;;;11.15;;
48596;SDS011;34382;43.160;24.148;2022-09-27T07:01:36;14.38;;;10.25;;
48596;SDS011;34382;43.160;24.148;2022-09-27T07:04:52;15.32;;;9.82;;
48596;SDS011;34382;43.160;24.148;2022-09-27T07:06:25;18.55;;;11.25;;
48596;SDS011;34382;43.160;24.148;2022-09-27T07:07:57;16.27;;;10.07;;
48596;SDS011;34382;43.160;24.148;2022-09-27T07:09:30;16.77;;;10.45;;
48596;SDS011;34382;43.160;24.148;2022-09-27T07:11:03;15.90;;;9.75;;
48596;SDS011;34382;43.160;24.148;2022-09-27T07:12:37;14.90;;;10.18;;
48596;SDS011;34382;43.160;24.148;2022-09-27T07:14:09;18.75;;;10.82;;
48596;SDS011;34382;43.160;24.148;2022-09-27T07:15:42;15.02;;;10.18;;
48596;SDS011;34382;43.160;24.148;2022-09-27T07:17:14;15.43;;;10.73;;
48596;SDS011;34382;43.160;24.148;2022-09-27T07:18:47;16.27;;;10.30;;
48596;SDS011;34382;43.160;24.148;2022-09-27T07:21:52;19.05;;;11.85;;
48596;SDS011;34382;43.160;24.148;2022-09-27T07:23:24;16.05;;;10.75;;
48596;SDS011;34382;43.160;24.148;2022-09-27T07:24:56;19.00;;;11.88;;
48596;SDS011;34382;43.160;24.148;2022-09-27T07:26:28;17.05;;;11.52;;
48596;SDS011;34382;43.160;24.148;2022-09-27T07:28:05;17.27;;;11.40;;
48596;SDS011;34382;43.160;24.148;2022-09-27T07:29:39;16.05;;;10.88;;
48596;SDS011;34382;43.160;24.148;2022-09-27T07:31:11;15.17;;;9.93;;
48596;SDS011;34382;43.160;24.148;2022-09-27T07:34:20;14.73;;;10.43;;
48596;SDS011;34382;43.160;24.148;2022-09-27T07:35:52;15.80;;;10.82;;
48596;SDS011;34382;43.160;24.148;2022-09-27T07:37:24;14.75;;;9.75;;
48596;SDS011;34382;43.160;24.148;2022-09-27T07:39:00;14.95;;;10.00;;
48596;SDS011;34382;43.160;24.148;2022-09-27T07:40:35;15.55;;;10.38;;
48596;SDS011;34382;43.160;24.148;2022-09-27T07:42:08;15.23;;;10.77;;
48596;SDS011;34382;43.160;24.148;2022-09-27T07:43:41;13.90;;;9.93;;
48596;SDS011;34382;43.160;24.148;2022-09-27T07:45:15;14.60;;;10.07;;
48596;SDS011;34382;43.160;24.148;2022-09-27T07:46:48;14.98;;;10.18;;
48596;SDS011;34382;43.160;24.148;2022-09-27T07:48:20;15.27;;;9.93;;
48596;SDS011;34382;43.160;24.148;2022-09-27T07:49:52;13.75;;;10.10;;
48596;SDS011;34382;43.160;24.148;2022-09-27T07:51:24;13.82;;;9.40;;
48596;SDS011;34382;43.160;24.148;2022-09-27T07:52:57;14.32;;;10.50;;
48596;SDS011;34382;43.160;24.148;2022-09-27T07:54:29;14.80;;;9.75;;
48596;SDS011;34382;43.160;24.148;2022-09-27T07:56:01;15.25;;;10.25;;
48596;SDS011;34382;43.160;24.148;2022-09-27T07:57:33;17.83;;;10.75;;
48596;SDS011;34382;43.160;24.148;2022-09-27T07:59:05;14.35;;;10.25;;
48596;SDS011;34382;43.160;24.148;2022-09-27T08:00:38;15.63;;;10.60;;
48596;SDS011;34382;43.160;24.148;2022-09-27T08:02:12;19.02;;;12.73;;
48596;SDS011;34382;43.160;24.148;2022-09-27T08:05:24;17.95;;;12.05;;
48596;SDS011;34382;43.160;24.148;2022-09-27T08:06:56;15.98;;;9.73;;
48596;SDS011;34382;43.160;24.148;2022-09-27T08:08:28;16.33;;;10.52;;
48596;SDS011;34382;43.160;24.148;2022-09-27T08:10:02;16.98;;;10.00;;
48596;SDS011;34382;43.160;24.148;2022-09-27T08:11:34;14.05;;;10.45;;
48596;SDS011;34382;43.160;24.148;2022-09-27T08:13:08;15.00;;;10.30;;
48596;SDS011;34382;43.160;24.148;2022-09-27T08:14:41;14.07;;;10.27;;
48596;SDS011;34382;43.160;24.148;2022-09-27T08:16:18;15.32;;;10.07;;
48596;SDS011;34382;43.160;24.148;2022-09-27T08:17:50;14.50;;;10.35;;
48596;SDS011;34382;43.160;24.148;2022-09-27T08:19:24;16.75;;;11.25;;
48596;SDS011;34382;43.160;24.148;2022-09-27T08:20:57;15.50;;;10.25;;
48596;SDS011;34382;43.160;24.148;2022-09-27T08:22:30;14.95;;;10.07;;
48596;SDS011;34382;43.160;24.148;2022-09-27T08:24:02;14.80;;;9.60;;
48596;SDS011;34382;43.160;24.148;2022-09-27T08:25:34;15.18;;;9.95;;
48596;SDS011;34382;43.160;24.148;2022-09-27T08:27:07;13.30;;;9.93;;
48596;SDS011;34382;43.160;24.148;2022-09-27T08:28:42;13.85;;;9.60;;
48596;SDS011;34382;43.160;24.148;2022-09-27T08:30:14;14.27;;;8.80;;
48596;SDS011;34382;43.160;24.148;2022-09-27T08:31:46;14.38;;;8.85;;
48596;SDS011;34382;43.160;24.148;2022-09-27T08:33:21;12.50;;;7.97;;
48596;SDS011;34382;43.160;24.148;2022-09-27T08:35:02;14.02;;;8.77;;
48596;SDS011;34382;43.160;24.148;2022-09-27T08:36:35;12.80;;;8.23;;
48596;SDS011;34382;43.160;24.148;2022-09-27T08:38:08;12.57;;;8.13;;
48596;SDS011;34382;43.160;24.148;2022-09-27T08:39:40;12.27;;;8.10;;
48596;SDS011;34382;43.160;24.148;2022-09-27T08:43:12;12.38;;;8.05;;
48596;SDS011;34382;43.160;24.148;2022-09-27T08:48:42;12.05;;;8.40;;
48596;SDS011;34382;43.160;24.148;2022-09-27T08:50:24;12.43;;;8.38;;
48596;SDS011;34382;43.160;24.148;2022-09-27T08:51:58;12.48;;;8.10;;
48596;SDS011;34382;43.160;24.148;2022-09-27T08:53:42;14.35;;;8.80;;
48596;SDS011;34382;43.160;24.148;2022-09-27T08:55:33;14.38;;;8.55;;
48596;SDS011;34382;43.160;24.148;2022-09-27T08:57:09;13.85;;;8.88;;
48596;SDS011;34382;43.160;24.148;2022-09-27T08:58:50;12.60;;;8.10;;
48596;SDS011;34382;43.160;24.148;2022-09-27T09:00:27;13.40;;;8.13;;
48596;SDS011;34382;43.160;24.148;2022-09-27T09:03:33;13.75;;;8.25;;
48596;SDS011;34382;43.160;24.148;2022-09-27T09:05:08;13.15;;;8.57;;
48596;SDS011;34382;43.160;24.148;2022-09-27T09:16:23;13.77;;;9.82;;
48596;SDS011;34382;43.160;24.148;2022-09-27T09:18:19;12.20;;;8.55;;
48596;SDS011;34382;43.160;24.148;2022-09-27T09:22:00;14.38;;;9.85;;
48596;SDS011;34382;43.160;24.148;2022-09-27T09:23:55;15.82;;;10.80;;
48596;SDS011;34382;43.160;24.148;2022-09-27T09:25:40;15.25;;;10.20;;
48596;SDS011;34382;43.160;24.148;2022-09-27T09:29:15;15.38;;;9.32;;
48596;SDS011;34382;43.160;24.148;2022-09-27T09:31:07;14.00;;;9.60;;
48596;SDS011;34382;43.160;24.148;2022-09-27T09:34:31;15.90;;;10.25;;
48596;SDS011;34382;43.160;24.148;2022-09-27T09:38:09;16.17;;;10.52;;
48596;SDS011;34382;43.160;24.148;2022-09-27T09:39:46;14.18;;;8.93;;
48596;SDS011;34382;43.160;24.148;2022-09-27T09:41:28;13.93;;;9.50;;
48596;SDS011;34382;43.160;24.148;2022-09-27T09:43:13;13.90;;;8.27;;
48596;SDS011;34382;43.160;24.148;2022-09-27T09:44:49;12.18;;;7.90;;
48596;SDS011;34382;43.160;24.148;2022-09-27T09:46:30;13.63;;;9.23;;
48596;SDS011;34382;43.160;24.148;2022-09-27T09:50:52;13.38;;;8.75;;
48596;SDS011;34382;43.160;24.148;2022-09-27T09:52:06;12.77;;;8.55;;
48596;SDS011;34382;43.160;24.148;2022-09-27T09:53:53;12.30;;;8.10;;
48596;SDS011;34382;43.160;24.148;2022-09-27T09:55:28;11.15;;;7.88;;
48596;SDS011;34382;43.160;24.148;2022-09-27T09:57:27;12.55;;;8.07;;
48596;SDS011;34382;43.160;24.148;2022-09-27T10:00:52;12.57;;;8.45;;
48596;SDS011;34382;43.160;24.148;2022-09-27T10:03:59;13.27;;;7.87;;
48596;SDS011;34382;43.160;24.148;2022-09-27T10:05:32;11.98;;;7.90;;
48596;SDS011;34382;43.160;24.148;2022-09-27T10:07:04;12.45;;;7.38;;
48596;SDS011;34382;43.160;24.148;2022-09-27T10:08:37;10.43;;;7.20;;
48596;SDS011;34382;43.160;24.148;2022-09-27T10:10:14;11.00;;;7.05;;
48596;SDS011;34382;43.160;24.148;2022-09-27T10:11:47;10.90;;;6.82;;
48596;SDS011;34382;43.160;24.148;2022-09-27T10:13:21;11.63;;;7.05;;
48596;SDS011;34382;43.160;24.148;2022-09-27T10:14:54;11.05;;;6.68;;
48596;SDS011;34382;43.160;24.148;2022-09-27T10:16:29;11.80;;;6.93;;
48596;SDS011;34382;43.160;24.148;2022-09-27T10:18:02;10.88;;;6.90;;
48596;SDS011;34382;43.160;24.148;2022-09-27T10:19:35;10.10;;;6.50;;
48596;SDS011;34382;43.160;24.148;2022-09-27T10:21:14;10.10;;;6.45;;
48596;SDS011;34382;43.160;24.148;2022-09-27T10:22:52;10.70;;;7.07;;
48596;SDS011;34382;43.160;24.148;2022-09-27T10:24:26;10.82;;;6.90;;
48596;SDS011;34382;43.160;24.148;2022-09-27T10:25:59;10.93;;;6.70;;
48596;SDS011;34382;43.160;24.148;2022-09-27T10:27:37;11.55;;;6.68;;
48596;SDS011;34382;43.160;24.148;2022-09-27T10:29:33;11.40;;;7.50;;
48596;SDS011;34382;43.160;24.148;2022-09-27T10:31:12;12.50;;;7.10;;
48596;SDS011;34382;43.160;24.148;2022-09-27T10:32:45;11.63;;;6.30;;
48596;SDS011;34382;43.160;24.148;2022-09-27T10:37:35;11.82;;;6.65;;
48596;SDS011;34382;43.160;24.148;2022-09-27T10:39:08;10.65;;;6.40;;
48596;SDS011;34382;43.160;24.148;2022-09-27T10:40:55;13.57;;;7.72;;
48596;SDS011;34382;43.160;24.148;2022-09-27T10:42:33;13.68;;;7.47;;
48596;SDS011;34382;43.160;24.148;2022-09-27T10:45:48;11.13;;;7.13;;
48596;SDS011;34382;43.160;24.148;2022-09-27T10:47:23;10.20;;;7.05;;
48596;SDS011;34382;43.160;24.148;2022-09-27T10:49:12;10.75;;;7.05;;
48596;SDS011;34382;43.160;24.148;2022-09-27T10:51:27;12.57;;;7.15;;
48596;SDS011;34382;43.160;24.148;2022-09-27T10:54:55;13.43;;;7.97;;
48596;SDS011;34382;43.160;24.148;2022-09-27T10:56:29;11.68;;;7.22;;
48596;SDS011;34382;43.160;24.148;2022-09-27T10:58:05;10.98;;;6.75;;
48596;SDS011;34382;43.160;24.148;2022-09-27T10:59:39;10.90;;;6.35;;
48596;SDS011;34382;43.160;24.148;2022-09-27T11:01:13;12.02;;;7.50;;
48596;SDS011;34382;43.160;24.148;2022-09-27T11:02:50;11.77;;;7.73;;
48596;SDS011;34382;43.160;24.148;2022-09-27T11:04:29;11.00;;;7.75;;
48596;SDS011;34382;43.160;24.148;2022-09-27T11:07:59;10.70;;;7.13;;
48596;SDS011;34382;43.160;24.148;2022-09-27T11:09:43;11.30;;;6.80;;
48596;SDS011;34382;43.160;24.148;2022-09-27T11:11:22;12.52;;;7.35;;
48596;SDS011;34382;43.160;24.148;2022-09-27T11:13:07;11.90;;;6.55;;
48596;SDS011;34382;43.160;24.148;2022-09-27T11:14:51;11.45;;;7.10;;
48596;SDS011;34382;43.160;24.148;2022-09-27T11:16:50;11.38;;;7.00;;
48596;SDS011;34382;43.160;24.148;2022-09-27T11:22:06;12.10;;;6.95;;
48596;SDS011;34382;43.160;24.148;2022-09-27T11:34:58;9.57;;;5.38;;
48596;SDS011;34382;43.160;24.148;2022-09-27T11:36:50;9.75;;;5.72;;
48596;SDS011;34382;43.160;24.148;2022-09-27T11:40:44;10.25;;;6.55;;
48596;SDS011;34382;43.160;24.148;2022-09-27T11:46:35;11.55;;;6.75;;
48596;SDS011;34382;43.160;24.148;2022-09-27T11:55:59;8.10;;;4.88;;
48596;SDS011;34382;43.160;24.148;2022-09-27T11:57:45;9.73;;;5.50;;
48596;SDS011;34382;43.160;24.148;2022-09-27T12:04:44;21.80;;;12.85;;
48596;SDS011;34382;43.160;24.148;2022-09-27T12:11:34;22.20;;;15.45;;
48596;SDS011;34382;43.160;24.148;2022-09-27T12:13:10;21.23;;;14.85;;
48596;SDS011;34382;43.160;24.148;2022-09-27T12:14:46;21.50;;;14.88;;
48596;SDS011;34382;43.160;24.148;2022-09-27T12:16:24;21.33;;;13.60;;
48596;SDS011;34382;43.160;24.148;2022-09-27T12:20:05;18.52;;;12.63;;
48596;SDS011;34382;43.160;24.148;2022-09-27T12:21:45;14.93;;;9.38;;
48596;SDS011;34382;43.160;24.148;2022-09-27T12:23:37;12.55;;;8.02;;
48596;SDS011;34382;43.160;24.148;2022-09-27T12:25:14;11.38;;;7.20;;
48596;SDS011;34382;43.160;24.148;2022-09-27T12:26:52;12.20;;;6.47;;
48596;SDS011;34382;43.160;24.148;2022-09-27T12:28:30;8.85;;;4.70;;
48596;SDS011;34382;43.160;24.148;2022-09-27T12:30:11;9.52;;;4.97;;
48596;SDS011;34382;43.160;24.148;2022-09-27T12:33:38;11.23;;;5.40;;
48596;SDS011;34382;43.160;24.148;2022-09-27T12:35:39;8.80;;;3.95;;
48596;SDS011;34382;43.160;24.148;2022-09-27T12:37:26;8.23;;;4.00;;
48596;SDS011;34382;43.160;24.148;2022-09-27T12:40:48;7.18;;;4.07;;
48596;SDS011;34382;43.160;24.148;2022-09-27T12:42:24;9.57;;;4.40;;
48596;SDS011;34382;43.160;24.148;2022-09-27T12:44:10;8.68;;;4.07;;
48596;SDS011;34382;43.160;24.148;2022-09-27T12:45:56;7.05;;;3.90;;
48596;SDS011;34382;43.160;24.148;2022-09-27T12:51:18;9.15;;;3.92;;
48596;SDS011;34382;43.160;24.148;2022-09-27T12:52:53;7.15;;;3.65;;
48596;SDS011;34382;43.160;24.148;2022-09-27T12:54:53;8.27;;;4.10;;
48596;SDS011;34382;43.160;24.148;2022-09-27T12:58:48;7.32;;;4.10;;
48596;SDS011;34382;43.160;24.148;2022-09-27T13:00:26;7.45;;;3.75;;
48596;SDS011;34382;43.160;24.148;2022-09-27T13:05:44;7.53;;;4.30;;
48596;SDS011;34382;43.160;24.148;2022-09-27T13:12:56;8.18;;;4.10;;
48596;SDS011;34382;43.160;24.148;2022-09-27T13:14:32;7.75;;;3.92;;
48596;SDS011;34382;43.160;24.148;2022-09-27T13:16:06;7.72;;;4.10;;
48596;SDS011;34382;43.160;24.148;2022-09-27T13:19:35;7.65;;;4.00;;
48596;SDS011;34382;43.160;24.148;2022-09-27T13:21:07;7.72;;;4.03;;
48596;SDS011;34382;43.160;24.148;2022-09-27T13:22:40;9.48;;;4.13;;
48596;SDS011;34382;43.160;24.148;2022-09-27T13:26:21;7.60;;;4.40;;
48596;SDS011;34382;43.160;24.148;2022-09-27T13:27:55;7.90;;;4.03;;
48596;SDS011;34382;43.160;24.148;2022-09-27T13:29:28;8.65;;;4.20;;
48596;SDS011;34382;43.160;24.148;2022-09-27T13:31:02;7.85;;;4.35;;
48596;SDS011;34382;43.160;24.148;2022-09-27T13:34:40;10.13;;;4.15;;
48596;SDS011;34382;43.160;24.148;2022-09-27T13:37:58;9.20;;;4.57;;
48596;SDS011;34382;43.160;24.148;2022-09-27T13:39:43;8.13;;;4.65;;
48596;SDS011;34382;43.160;24.148;2022-09-27T13:41:17;9.07;;;4.10;;
48596;SDS011;34382;43.160;24.148;2022-09-27T13:46:34;7.95;;;4.22;;
48596;SDS011;34382;43.160;24.148;2022-09-27T13:48:08;10.43;;;5.15;;
48596;SDS011;34382;43.160;24.148;2022-09-27T13:49:45;7.78;;;4.53;;
48596;SDS011;34382;43.160;24.148;2022-09-27T13:53:15;8.00;;;4.35;;
48596;SDS011;34382;43.160;24.148;2022-09-27T13:59:07;13.27;;;5.60;;
48596;SDS011;34382;43.160;24.148;2022-09-27T14:00:42;12.38;;;5.05;;
48596;SDS011;34382;43.160;24.148;2022-09-27T14:02:28;10.20;;;6.22;;
48596;SDS011;34382;43.160;24.148;2022-09-27T14:04:48;17.75;;;12.18;;
48596;SDS011;34382;43.160;24.148;2022-09-27T14:06:26;26.25;;;15.75;;
48596;SDS011;34382;43.160;24.148;2022-09-27T14:08:04;21.90;;;13.20;;
48596;SDS011;34382;43.160;24.148;2022-09-27T14:09:38;17.58;;;11.23;;
48596;SDS011;34382;43.160;24.148;2022-09-27T14:12:52;11.48;;;6.15;;
48596;SDS011;34382;43.160;24.148;2022-09-27T14:14:28;10.48;;;6.07;;
48596;SDS011;34382;43.160;24.148;2022-09-27T14:16:02;9.85;;;5.90;;
48596;SDS011;34382;43.160;24.148;2022-09-27T14:17:39;9.40;;;5.25;;
48596;SDS011;34382;43.160;24.148;2022-09-27T14:19:22;12.10;;;6.22;;
48596;SDS011;34382;43.160;24.148;2022-09-27T14:21:10;12.50;;;5.68;;
48596;SDS011;34382;43.160;24.148;2022-09-27T14:22:58;14.20;;;5.68;;
48596;SDS011;34382;43.160;24.148;2022-09-27T14:26:17;9.90;;;6.03;;
48596;SDS011;34382;43.160;24.148;2022-09-27T14:27:58;11.55;;;6.00;;
48596;SDS011;34382;43.160;24.148;2022-09-27T14:29:32;9.57;;;5.40;;
48596;SDS011;34382;43.160;24.148;2022-09-27T14:31:17;10.40;;;6.40;;
48596;SDS011;34382;43.160;24.148;2022-09-27T14:32:54;15.48;;;10.85;;
48596;SDS011;34382;43.160;24.148;2022-09-27T14:34:31;15.45;;;9.90;;
48596;SDS011;34382;43.160;24.148;2022-09-27T14:36:05;12.20;;;7.82;;
48596;SDS011;34382;43.160;24.148;2022-09-27T14:39:51;12.15;;;6.93;;
48596;SDS011;34382;43.160;24.148;2022-09-27T14:41:25;9.95;;;6.32;;
48596;SDS011;34382;43.160;24.148;2022-09-27T14:42:58;12.07;;;6.00;;
48596;SDS011;34382;43.160;24.148;2022-09-27T14:44:31;10.50;;;6.80;;
48596;SDS011;34382;43.160;24.148;2022-09-27T14:46:04;12.75;;;7.05;;
48596;SDS011;34382;43.160;24.148;2022-09-27T14:47:43;12.07;;;6.78;;
48596;SDS011;34382;43.160;24.148;2022-09-27T14:49:25;12.25;;;6.55;;
48596;SDS011;34382;43.160;24.148;2022-09-27T14:52:40;12.65;;;7.55;;
48596;SDS011;34382;43.160;24.148;2022-09-27T14:54:18;16.40;;;8.95;;
48596;SDS011;34382;43.160;24.148;2022-09-27T14:55:56;16.13;;;10.35;;
48596;SDS011;34382;43.160;24.148;2022-09-27T14:57:29;15.98;;;8.48;;
48596;SDS011;34382;43.160;24.148;2022-09-27T14:59:13;14.40;;;8.23;;
48596;SDS011;34382;43.160;24.148;2022-09-27T15:00:48;17.35;;;8.07;;
48596;SDS011;34382;43.160;24.148;2022-09-27T15:02:21;12.32;;;8.07;;
48596;SDS011;34382;43.160;24.148;2022-09-27T15:04:01;13.40;;;7.50;;
48596;SDS011;34382;43.160;24.148;2022-09-27T15:05:36;13.13;;;7.75;;
48596;SDS011;34382;43.160;24.148;2022-09-27T15:07:12;16.15;;;8.32;;
48596;SDS011;34382;43.160;24.148;2022-09-27T15:08:50;14.63;;;7.35;;
48596;SDS011;34382;43.160;24.148;2022-09-27T15:10:24;14.25;;;7.82;;
48596;SDS011;34382;43.160;24.148;2022-09-27T15:12:02;14.15;;;8.30;;
48596;SDS011;34382;43.160;24.148;2022-09-27T15:13:36;17.92;;;9.27;;
48596;SDS011;34382;43.160;24.148;2022-09-27T15:15:10;14.02;;;8.73;;
48596;SDS011;34382;43.160;24.148;2022-09-27T15:16:49;16.40;;;8.50;;
48596;SDS011;34382;43.160;24.148;2022-09-27T15:20:30;13.48;;;8.43;;
48596;SDS011;34382;43.160;24.148;2022-09-27T15:22:21;15.20;;;8.23;;
48596;SDS011;34382;43.160;24.148;2022-09-27T15:24:00;14.35;;;8.25;;
48596;SDS011;34382;43.160;24.148;2022-09-27T15:27:13;13.20;;;7.57;;
48596;SDS011;34382;43.160;24.148;2022-09-27T15:28:52;11.90;;;7.05;;
48596;SDS011;34382;43.160;24.148;2022-09-27T15:30:32;12.13;;;7.50;;
48596;SDS011;34382;43.160;24.148;2022-09-27T15:32:11;14.48;;;7.05;;
48596;SDS011;34382;43.160;24.148;2022-09-27T15:33:52;13.68;;;7.35;;
48596;SDS011;34382;43.160;24.148;2022-09-27T15:35:28;13.27;;;7.45;;
48596;SDS011;34382;43.160;24.148;2022-09-27T15:38:39;10.63;;;6.07;;
48596;SDS011;34382;43.160;24.148;2022-09-27T15:42:07;11.98;;;6.63;;
48596;SDS011;34382;43.160;24.148;2022-09-27T15:43:49;13.35;;;6.95;;
48596;SDS011;34382;43.160;24.148;2022-09-27T15:45:27;10.75;;;6.15;;
48596;SDS011;34382;43.160;24.148;2022-09-27T15:47:00;10.40;;;6.05;;
48596;SDS011;34382;43.160;24.148;2022-09-27T15:48:33;10.23;;;5.43;;
48596;SDS011;34382;43.160;24.148;2022-09-27T15:51:47;10.55;;;5.70;;
48596;SDS011;34382;43.160;24.148;2022-09-27T15:53:54;9.77;;;5.60;;
48596;SDS011;34382;43.160;24.148;2022-09-27T15:55:20;10.90;;;5.97;;
48596;SDS011;34382;43.160;24.148;2022-09-27T15:56:56;9.52;;;5.65;;
48596;SDS011;34382;43.160;24.148;2022-09-27T15:58:32;19.48;;;7.15;;
48596;SDS011;34382;43.160;24.148;2022-09-27T16:00:05;25.70;;;20.02;;
48596;SDS011;34382;43.160;24.148;2022-09-27T16:01:41;22.52;;;17.02;;
48596;SDS011;34382;43.160;24.148;2022-09-27T16:03:13;22.85;;;16.23;;
48596;SDS011;34382;43.160;24.148;2022-09-27T16:04:45;22.65;;;15.10;;
48596;SDS011;34382;43.160;24.148;2022-09-27T16:06:18;13.73;;;8.88;;
48596;SDS011;34382;43.160;24.148;2022-09-27T16:07:50;11.15;;;7.15;;
48596;SDS011;34382;43.160;24.148;2022-09-27T16:09:22;12.30;;;7.18;;
48596;SDS011;34382;43.160;24.148;2022-09-27T16:10:56;13.00;;;7.27;;
48596;SDS011;34382;43.160;24.148;2022-09-27T16:14:01;11.32;;;6.90;;
48596;SDS011;34382;43.160;24.148;2022-09-27T16:15:33;15.38;;;7.65;;
48596;SDS011;34382;43.160;24.148;2022-09-27T16:17:07;13.35;;;8.23;;
48596;SDS011;34382;43.160;24.148;2022-09-27T16:18:40;15.95;;;9.85;;
48596;SDS011;34382;43.160;24.148;2022-09-27T16:20:17;20.55;;;15.68;;
48596;SDS011;34382;43.160;24.148;2022-09-27T16:21:57;20.27;;;16.58;;
48596;SDS011;34382;43.160;24.148;2022-09-27T16:23:34;21.48;;;15.82;;
48596;SDS011;34382;43.160;24.148;2022-09-27T16:25:06;21.05;;;15.27;;
48596;SDS011;34382;43.160;24.148;2022-09-27T16:26:39;15.70;;;11.23;;
48596;SDS011;34382;43.160;24.148;2022-09-27T16:28:11;18.23;;;12.80;;
48596;SDS011;34382;43.160;24.148;2022-09-27T16:29:43;17.88;;;12.70;;
48596;SDS011;34382;43.160;24.148;2022-09-27T16:31:16;13.43;;;9.52;;
48596;SDS011;34382;43.160;24.148;2022-09-27T16:32:49;15.20;;;9.35;;
48596;SDS011;34382;43.160;24.148;2022-09-27T16:34:21;15.00;;;9.10;;
48596;SDS011;34382;43.160;24.148;2022-09-27T16:35:54;12.13;;;7.80;;
48596;SDS011;34382;43.160;24.148;2022-09-27T16:37:26;15.13;;;8.30;;
48596;SDS011;34382;43.160;24.148;2022-09-27T16:39:01;12.70;;;7.93;;
48596;SDS011;34382;43.160;24.148;2022-09-27T16:40:36;12.45;;;7.97;;
48596;SDS011;34382;43.160;24.148;2022-09-27T16:43:40;12.93;;;7.70;;
48596;SDS011;34382;43.160;24.148;2022-09-27T16:45:13;11.23;;;6.82;;
48596;SDS011;34382;43.160;24.148;2022-09-27T16:46:50;10.18;;;5.90;;
48596;SDS011;34382;43.160;24.148;2022-09-27T16:48:22;12.65;;;6.60;;
48596;SDS011;34382;43.160;24.148;2022-09-27T16:49:55;11.77;;;7.23;;
48596;SDS011;34382;43.160;24.148;2022-09-27T16:51:46;11.32;;;7.07;;
48596;SDS011;34382;43.160;24.148;2022-09-27T16:53:30;13.88;;;8.93;;
48596;SDS011;34382;43.160;24.148;2022-09-27T16:55:03;11.48;;;7.45;;